EJA220 KVNY-KSGR
Flight info
| Callsign | EJA220 |
|---|---|
| Flight time | N/A |
| Altitude | 39000 |
| Route | HARYS5 BLH J169 TFD J50 ELP Q4 FUSCO DCT BGOHH SNDAY1 |
| Aircraft | CL60/M-SBDE1E2E3FGHIJ1J4J5J7M3RWXYZ/LB1V1D1 |
Departure
| Time | N/A |
|---|---|
| Airport | Van Nuys Airport (KVNY) |
Arrival
| Time | 2026-04-21 23:01 |
|---|---|
| Airport | Sugar Land Regional Airport (KSGR) |
| Time | Latitude | Longitude | Altitude | Speed | Heading |
|---|---|---|---|---|---|
| 2026-04-21 21:09 | 32.38227 | -109.72839 | 39220 ft | 490 kts | 106° |
| 2026-04-21 21:09 | 32.37299 | -109.68990 | 39200 ft | 490 kts | 106° |
| 2026-04-21 21:10 | 32.35423 | -109.61226 | 39195 ft | 489 kts | 106° |
| 2026-04-21 21:10 | 32.33558 | -109.53528 | 39184 ft | 488 kts | 106° |
| 2026-04-21 21:11 | 32.31683 | -109.45813 | 39180 ft | 488 kts | 106° |
| 2026-04-21 21:11 | 32.29809 | -109.38124 | 39180 ft | 487 kts | 106° |
| 2026-04-21 21:12 | 32.27921 | -109.30398 | 39170 ft | 487 kts | 107° |
| 2026-04-21 21:12 | 32.26082 | -109.22691 | 39180 ft | 488 kts | 105° |
| 2026-04-21 21:13 | 32.24319 | -109.14951 | 39197 ft | 488 kts | 105° |
| 2026-04-21 21:13 | 32.22550 | -109.07220 | 39201 ft | 489 kts | 105° |
| 2026-04-21 21:14 | 32.20766 | -108.99448 | 39221 ft | 489 kts | 105° |
| 2026-04-21 21:14 | 32.18990 | -108.91734 | 39212 ft | 489 kts | 105° |
| 2026-04-21 21:15 | 32.17200 | -108.83989 | 39210 ft | 489 kts | 105° |
| 2026-04-21 21:15 | 32.15406 | -108.76251 | 39218 ft | 488 kts | 105° |
| 2026-04-21 21:16 | 32.13615 | -108.68545 | 39214 ft | 487 kts | 105° |
| 2026-04-21 21:16 | 32.11814 | -108.60819 | 39207 ft | 487 kts | 105° |
| 2026-04-21 21:17 | 32.10021 | -108.53157 | 39228 ft | 487 kts | 105° |
| 2026-04-21 21:17 | 32.08212 | -108.45443 | 39231 ft | 488 kts | 105° |
| 2026-04-21 21:18 | 32.06409 | -108.37781 | 39232 ft | 487 kts | 106° |
| 2026-04-21 21:18 | 32.04583 | -108.30044 | 39232 ft | 487 kts | 106° |
| 2026-04-21 21:19 | 32.02751 | -108.22304 | 39238 ft | 487 kts | 106° |
| 2026-04-21 21:19 | 32.00998 | -108.14921 | 39226 ft | 488 kts | 106° |
| 2026-04-21 21:20 | 31.99162 | -108.07210 | 39225 ft | 487 kts | 106° |
| 2026-04-21 21:20 | 31.97339 | -107.99572 | 39220 ft | 487 kts | 106° |
| 2026-04-21 21:21 | 31.95508 | -107.91927 | 39217 ft | 486 kts | 107° |
| 2026-04-21 21:21 | 31.93669 | -107.84270 | 39207 ft | 486 kts | 107° |
| 2026-04-21 21:22 | 31.92077 | -107.76547 | 39203 ft | 487 kts | 97° |
| 2026-04-21 21:22 | 31.91521 | -107.68548 | 39189 ft | 487 kts | 94° |
| 2026-04-21 21:23 | 31.91015 | -107.60783 | 39179 ft | 487 kts | 94° |
| 2026-04-21 21:23 | 31.90505 | -107.53063 | 39178 ft | 487 kts | 94° |
| 2026-04-21 21:24 | 31.89980 | -107.45154 | 39182 ft | 486 kts | 94° |
| 2026-04-21 21:24 | 31.89438 | -107.37093 | 39170 ft | 487 kts | 95° |
| 2026-04-21 21:25 | 31.88899 | -107.29139 | 39171 ft | 486 kts | 95° |
| 2026-04-21 21:25 | 31.88358 | -107.21236 | 39180 ft | 485 kts | 95° |
| 2026-04-21 21:26 | 31.87811 | -107.13321 | 39192 ft | 485 kts | 95° |
| 2026-04-21 21:26 | 31.87273 | -107.05610 | 39175 ft | 486 kts | 95° |
| 2026-04-21 21:27 | 31.86716 | -106.97697 | 39169 ft | 486 kts | 95° |
| 2026-04-21 21:27 | 31.86152 | -106.89762 | 39167 ft | 487 kts | 95° |
| 2026-04-21 21:28 | 31.85583 | -106.81824 | 39163 ft | 487 kts | 95° |
| 2026-04-21 21:29 | 31.84736 | -106.70130 | 39160 ft | 487 kts | 96° |
| 2026-04-21 21:29 | 31.84153 | -106.62169 | 39170 ft | 487 kts | 95° |
| 2026-04-21 21:30 | 31.83566 | -106.54224 | 39167 ft | 487 kts | 96° |
| 2026-04-21 21:30 | 31.82977 | -106.46323 | 39166 ft | 486 kts | 96° |
| 2026-04-21 21:31 | 31.82378 | -106.38348 | 39168 ft | 487 kts | 96° |
| 2026-04-21 21:31 | 31.81776 | -106.30408 | 39162 ft | 487 kts | 96° |
| 2026-04-21 21:32 | 31.80958 | -106.22513 | 39169 ft | 487 kts | 99° |
| 2026-04-21 21:32 | 31.80025 | -106.14634 | 39177 ft | 488 kts | 99° |
| 2026-04-21 21:33 | 31.79087 | -106.06737 | 39202 ft | 489 kts | 99° |
| 2026-04-21 21:33 | 31.78140 | -105.98798 | 39211 ft | 489 kts | 99° |
| 2026-04-21 21:34 | 31.77191 | -105.90874 | 39224 ft | 488 kts | 99° |
| 2026-04-21 21:34 | 31.76242 | -105.82998 | 39228 ft | 488 kts | 99° |
| 2026-04-21 21:35 | 31.75288 | -105.75123 | 39232 ft | 488 kts | 99° |
| 2026-04-21 21:35 | 31.74328 | -105.67228 | 39221 ft | 489 kts | 99° |
| 2026-04-21 21:36 | 31.73360 | -105.59313 | 39212 ft | 489 kts | 99° |
| 2026-04-21 21:36 | 31.72391 | -105.51433 | 39203 ft | 490 kts | 99° |
| 2026-04-21 21:37 | 31.71409 | -105.43484 | 39197 ft | 490 kts | 99° |
| 2026-04-21 21:37 | 31.70425 | -105.35561 | 39194 ft | 490 kts | 99° |
| 2026-04-21 21:38 | 31.69432 | -105.27617 | 39190 ft | 490 kts | 100° |
| 2026-04-21 21:38 | 31.68438 | -105.19691 | 39180 ft | 490 kts | 100° |
| 2026-04-21 21:39 | 31.67440 | -105.11777 | 39170 ft | 490 kts | 100° |
| 2026-04-21 21:39 | 31.66437 | -105.03866 | 39172 ft | 490 kts | 100° |
| 2026-04-21 21:40 | 31.65432 | -104.95982 | 39181 ft | 491 kts | 100° |
| 2026-04-21 21:40 | 31.64414 | -104.88031 | 39188 ft | 492 kts | 99° |
| 2026-04-21 21:41 | 31.63394 | -104.80106 | 39182 ft | 492 kts | 99° |
| 2026-04-21 21:41 | 31.62384 | -104.72298 | 39181 ft | 492 kts | 99° |
| 2026-04-21 21:42 | 31.61353 | -104.64370 | 39182 ft | 492 kts | 100° |
| 2026-04-21 21:42 | 31.60332 | -104.56551 | 39176 ft | 493 kts | 99° |
| 2026-04-21 21:43 | 31.59288 | -104.48600 | 39170 ft | 492 kts | 99° |
| 2026-04-21 21:43 | 31.58248 | -104.40720 | 39157 ft | 492 kts | 99° |
| 2026-04-21 21:44 | 31.57190 | -104.32743 | 39142 ft | 492 kts | 100° |
| 2026-04-21 21:44 | 31.56141 | -104.24865 | 39136 ft | 492 kts | 100° |
| 2026-04-21 21:45 | 31.55074 | -104.16902 | 39118 ft | 492 kts | 100° |
| 2026-04-21 21:45 | 31.54013 | -104.09013 | 39110 ft | 492 kts | 100° |
| 2026-04-21 21:46 | 31.52944 | -104.01111 | 39098 ft | 492 kts | 100° |
| 2026-04-21 21:46 | 31.51865 | -103.93166 | 39096 ft | 493 kts | 100° |
| 2026-04-21 21:47 | 31.50784 | -103.85251 | 39094 ft | 493 kts | 100° |
| 2026-04-21 21:47 | 31.49700 | -103.77343 | 39086 ft | 494 kts | 100° |
| 2026-04-21 21:48 | 31.48604 | -103.69389 | 39084 ft | 494 kts | 100° |
| 2026-04-21 21:48 | 31.47504 | -103.61446 | 39076 ft | 494 kts | 100° |
| 2026-04-21 21:49 | 31.46458 | -103.53520 | 39076 ft | 494 kts | 99° |
| 2026-04-21 21:49 | 31.45492 | -103.45551 | 39072 ft | 494 kts | 99° |
| 2026-04-21 21:50 | 31.44522 | -103.37608 | 39081 ft | 494 kts | 99° |
| 2026-04-21 21:50 | 31.43536 | -103.29580 | 39085 ft | 494 kts | 99° |
| 2026-04-21 21:51 | 31.42556 | -103.21652 | 39088 ft | 494 kts | 99° |
| 2026-04-21 21:51 | 31.41567 | -103.13693 | 39082 ft | 495 kts | 99° |
| 2026-04-21 21:52 | 31.40591 | -103.05882 | 39091 ft | 495 kts | 99° |
| 2026-04-21 21:52 | 31.39591 | -102.97918 | 39085 ft | 495 kts | 99° |
| 2026-04-21 21:53 | 31.38584 | -102.89944 | 39077 ft | 496 kts | 99° |
| 2026-04-21 21:53 | 31.37573 | -102.81976 | 39078 ft | 496 kts | 99° |
| 2026-04-21 21:54 | 31.36556 | -102.74008 | 39075 ft | 496 kts | 99° |
| 2026-04-21 21:54 | 31.35536 | -102.66053 | 39078 ft | 497 kts | 99° |
| 2026-04-21 21:55 | 31.34506 | -102.58063 | 39080 ft | 498 kts | 99° |
| 2026-04-21 21:55 | 31.33468 | -102.50048 | 39076 ft | 498 kts | 99° |
| 2026-04-21 21:56 | 31.32428 | -102.42055 | 39081 ft | 499 kts | 99° |
| 2026-04-21 21:56 | 31.31372 | -102.33989 | 39084 ft | 499 kts | 100° |
| 2026-04-21 21:57 | 31.30321 | -102.25996 | 39093 ft | 499 kts | 100° |
| 2026-04-21 21:57 | 31.29257 | -102.17945 | 39094 ft | 500 kts | 100° |
| 2026-04-21 21:58 | 31.28183 | -102.09860 | 39090 ft | 501 kts | 100° |
| 2026-04-21 21:58 | 31.27118 | -102.01878 | 39089 ft | 502 kts | 100° |
| 2026-04-21 21:59 | 31.26032 | -101.93780 | 39097 ft | 502 kts | 100° |
| 2026-04-21 21:59 | 31.24950 | -101.85751 | 39094 ft | 503 kts | 100° |
| 2026-04-21 22:00 | 31.23856 | -101.77676 | 39094 ft | 504 kts | 99° |
| 2026-04-21 22:00 | 31.22753 | -101.69568 | 39096 ft | 504 kts | 100° |
| 2026-04-21 22:01 | 31.21654 | -101.61535 | 39103 ft | 504 kts | 100° |
| 2026-04-21 22:01 | 31.20543 | -101.53447 | 39099 ft | 504 kts | 100° |
| 2026-04-21 22:02 | 31.19422 | -101.45332 | 39102 ft | 504 kts | 100° |
| 2026-04-21 22:02 | 31.18305 | -101.37279 | 39107 ft | 504 kts | 100° |
| 2026-04-21 22:03 | 31.17569 | -101.29138 | 39107 ft | 505 kts | 92° |
| 2026-04-21 22:03 | 31.17378 | -101.20932 | 39104 ft | 505 kts | 92° |
| 2026-04-21 22:04 | 31.17181 | -101.12956 | 39107 ft | 506 kts | 92° |
| 2026-04-21 22:04 | 31.16971 | -101.04739 | 39106 ft | 507 kts | 92° |
| 2026-04-21 22:05 | 31.16754 | -100.96484 | 39113 ft | 508 kts | 92° |
| 2026-04-21 22:05 | 31.16531 | -100.88259 | 39108 ft | 509 kts | 92° |
| 2026-04-21 22:06 | 31.16301 | -100.80004 | 39111 ft | 508 kts | 92° |
| 2026-04-21 22:06 | 31.16066 | -100.71755 | 39107 ft | 508 kts | 92° |
| 2026-04-21 22:07 | 31.15826 | -100.63524 | 39123 ft | 508 kts | 92° |
| 2026-04-21 22:07 | 31.15580 | -100.55290 | 39102 ft | 509 kts | 92° |
| 2026-04-21 22:08 | 31.15328 | -100.47038 | 39117 ft | 509 kts | 92° |
| 2026-04-21 22:08 | 31.15069 | -100.38728 | 39106 ft | 510 kts | 92° |
| 2026-04-21 22:09 | 31.14806 | -100.30455 | 39115 ft | 510 kts | 93° |
| 2026-04-21 22:09 | 31.14536 | -100.22136 | 39109 ft | 511 kts | 92° |
| 2026-04-21 22:10 | 31.14262 | -100.13853 | 39108 ft | 511 kts | 92° |
| 2026-04-21 22:10 | 31.13982 | -100.05564 | 39101 ft | 511 kts | 92° |
| 2026-04-21 22:11 | 31.13697 | -99.97264 | 39107 ft | 511 kts | 92° |
| 2026-04-21 22:11 | 31.13407 | -99.88995 | 39111 ft | 512 kts | 92° |
| 2026-04-21 22:12 | 31.13112 | -99.80737 | 39112 ft | 512 kts | 92° |
| 2026-04-21 22:12 | 31.12811 | -99.72451 | 39112 ft | 512 kts | 92° |
| 2026-04-21 22:13 | 31.12504 | -99.64147 | 39122 ft | 512 kts | 92° |
| 2026-04-21 22:13 | 31.12191 | -99.55840 | 39119 ft | 513 kts | 92° |
| 2026-04-21 22:14 | 31.11872 | -99.47478 | 39135 ft | 513 kts | 92° |
| 2026-04-21 22:14 | 31.11549 | -99.39193 | 39136 ft | 513 kts | 92° |
| 2026-04-21 22:15 | 31.11218 | -99.30820 | 39144 ft | 514 kts | 93° |
| 2026-04-21 22:15 | 31.10888 | -99.22616 | 39137 ft | 514 kts | 93° |
| 2026-04-21 22:16 | 31.10548 | -99.14274 | 39124 ft | 515 kts | 93° |
| 2026-04-21 22:16 | 31.10201 | -99.05899 | 39132 ft | 514 kts | 93° |
| 2026-04-21 22:17 | 31.09849 | -98.97534 | 39129 ft | 515 kts | 93° |
| 2026-04-21 22:17 | 31.09492 | -98.89198 | 39128 ft | 515 kts | 93° |
| 2026-04-21 22:18 | 31.09129 | -98.80873 | 39131 ft | 515 kts | 94° |
| 2026-04-21 22:18 | 31.08357 | -98.72762 | 39127 ft | 515 kts | 97° |
| 2026-04-21 22:19 | 31.07453 | -98.64452 | 39127 ft | 516 kts | 97° |
| 2026-04-21 22:19 | 31.06550 | -98.56168 | 39134 ft | 516 kts | 97° |
| 2026-04-21 22:20 | 31.05644 | -98.47883 | 39145 ft | 515 kts | 97° |
| 2026-04-21 22:20 | 31.04730 | -98.39571 | 39135 ft | 515 kts | 97° |
| 2026-04-21 22:21 | 31.03815 | -98.31286 | 39137 ft | 515 kts | 98° |
| 2026-04-21 22:21 | 31.02899 | -98.23029 | 39149 ft | 514 kts | 98° |
| 2026-04-21 22:22 | 31.01973 | -98.14734 | 39155 ft | 516 kts | 98° |
| 2026-04-21 22:22 | 31.01040 | -98.06422 | 39150 ft | 518 kts | 98° |
| 2026-04-21 22:23 | 31.00107 | -97.98147 | 39143 ft | 518 kts | 98° |
| 2026-04-21 22:23 | 30.99164 | -97.89832 | 39149 ft | 518 kts | 98° |
| 2026-04-21 22:24 | 30.98218 | -97.81537 | 39157 ft | 518 kts | 98° |
| 2026-04-21 22:24 | 30.97302 | -97.73387 | 39051 ft | 516 kts | 97° |
| 2026-04-21 22:24 | 30.96903 | -97.69280 | 38442 ft | 513 kts | 97° |
| 2026-04-21 22:25 | 30.96502 | -97.65131 | 37770 ft | 511 kts | 97° |
| 2026-04-21 22:25 | 30.96106 | -97.61047 | 37127 ft | 509 kts | 97° |
| 2026-04-21 22:25 | 30.95705 | -97.56931 | 36483 ft | 506 kts | 97° |
| 2026-04-21 22:25 | 30.95309 | -97.52885 | 35835 ft | 505 kts | 97° |
| 2026-04-21 22:26 | 30.94908 | -97.48803 | 35169 ft | 503 kts | 97° |
| 2026-04-21 22:26 | 30.94514 | -97.44799 | 34503 ft | 502 kts | 96° |
| 2026-04-21 22:26 | 30.94117 | -97.40781 | 33860 ft | 500 kts | 97° |
| 2026-04-21 22:26 | 30.93720 | -97.36781 | 33185 ft | 498 kts | 96° |
| 2026-04-21 22:27 | 30.93318 | -97.32745 | 32535 ft | 496 kts | 97° |
| 2026-04-21 22:27 | 30.92921 | -97.28769 | 31872 ft | 493 kts | 97° |
| 2026-04-21 22:27 | 30.92527 | -97.24838 | 31236 ft | 490 kts | 97° |
| 2026-04-21 22:27 | 30.92134 | -97.20933 | 30570 ft | 487 kts | 97° |
| 2026-04-21 22:28 | 30.91738 | -97.17003 | 29924 ft | 484 kts | 97° |
| 2026-04-21 22:28 | 30.91343 | -97.13108 | 29308 ft | 480 kts | 97° |
| 2026-04-21 22:28 | 30.90958 | -97.09315 | 28662 ft | 477 kts | 96° |
| 2026-04-21 22:28 | 30.90566 | -97.05459 | 28034 ft | 473 kts | 97° |
| 2026-04-21 22:29 | 30.90184 | -97.01720 | 27417 ft | 470 kts | 96° |
| 2026-04-21 22:29 | 30.89798 | -96.97949 | 26790 ft | 466 kts | 96° |
| 2026-04-21 22:29 | 30.89411 | -96.94190 | 26179 ft | 461 kts | 96° |
| 2026-04-21 22:29 | 30.89033 | -96.90516 | 25571 ft | 456 kts | 96° |
| 2026-04-21 22:30 | 30.88641 | -96.86860 | 24962 ft | 451 kts | 98° |
| 2026-04-21 22:30 | 30.87811 | -96.83395 | 24376 ft | 445 kts | 112° |
| 2026-04-21 22:30 | 30.86585 | -96.80119 | 23775 ft | 440 kts | 115° |
| 2026-04-21 22:30 | 30.85348 | -96.76849 | 23186 ft | 435 kts | 114° |
| 2026-04-21 22:31 | 30.84157 | -96.73698 | 22625 ft | 428 kts | 114° |
| 2026-04-21 22:31 | 30.82953 | -96.70512 | 22054 ft | 422 kts | 114° |
| 2026-04-21 22:31 | 30.81792 | -96.67441 | 21515 ft | 416 kts | 114° |
| 2026-04-21 22:31 | 30.80622 | -96.64350 | 20959 ft | 410 kts | 114° |
| 2026-04-21 22:32 | 30.79485 | -96.61348 | 20423 ft | 404 kts | 114° |
| 2026-04-21 22:32 | 30.78370 | -96.58405 | 19895 ft | 399 kts | 114° |
| 2026-04-21 22:32 | 30.77255 | -96.55468 | 19371 ft | 393 kts | 114° |
| 2026-04-21 22:32 | 30.76151 | -96.52559 | 18852 ft | 388 kts | 115° |
| 2026-04-21 22:33 | 30.74835 | -96.49866 | 18339 ft | 380 kts | 129° |
| 2026-04-21 22:33 | 30.72970 | -96.47741 | 17807 ft | 371 kts | 147° |
| 2026-04-21 22:33 | 30.70740 | -96.46321 | 17219 ft | 364 kts | 161° |
| 2026-04-21 22:33 | 30.68378 | -96.45317 | 16576 ft | 362 kts | 164° |
| 2026-04-21 22:34 | 30.66013 | -96.44340 | 16151 ft | 355 kts | 163° |
| 2026-04-21 22:34 | 30.63672 | -96.43368 | 15666 ft | 351 kts | 164° |
| 2026-04-21 22:34 | 30.61385 | -96.42420 | 15204 ft | 346 kts | 164° |
| 2026-04-21 22:34 | 30.59120 | -96.41504 | 14747 ft | 342 kts | 165° |
| 2026-04-21 22:35 | 30.56892 | -96.40631 | 14304 ft | 337 kts | 165° |
| 2026-04-21 22:35 | 30.54653 | -96.39753 | 13862 ft | 333 kts | 165° |
| 2026-04-21 22:35 | 30.52455 | -96.38892 | 13419 ft | 329 kts | 165° |
| 2026-04-21 22:35 | 30.50305 | -96.38049 | 12977 ft | 326 kts | 165° |
| 2026-04-21 22:36 | 30.46044 | -96.36381 | 12106 ft | 320 kts | 165° |
| 2026-04-21 22:36 | 30.43917 | -96.35548 | 11690 ft | 316 kts | 165° |
| 2026-04-21 22:36 | 30.41858 | -96.34742 | 11264 ft | 314 kts | 165° |
| 2026-04-21 22:37 | 30.39792 | -96.33933 | 10850 ft | 310 kts | 165° |
| 2026-04-21 22:37 | 30.37744 | -96.33132 | 10427 ft | 306 kts | 165° |
| 2026-04-21 22:37 | 30.35732 | -96.32346 | 10033 ft | 302 kts | 165° |
| 2026-04-21 22:37 | 30.33754 | -96.31572 | 9622 ft | 299 kts | 165° |
| 2026-04-21 22:38 | 30.31771 | -96.30798 | 9226 ft | 295 kts | 165° |
| 2026-04-21 22:38 | 30.29848 | -96.30045 | 9007 ft | 284 kts | 165° |
| 2026-04-21 22:38 | 30.27947 | -96.29305 | 8973 ft | 289 kts | 165° |
| 2026-04-21 22:38 | 30.26060 | -96.28569 | 8972 ft | 288 kts | 165° |
| 2026-04-21 22:39 | 30.24148 | -96.27824 | 8972 ft | 288 kts | 165° |
| 2026-04-21 22:39 | 30.22216 | -96.27072 | 8839 ft | 290 kts | 165° |
| 2026-04-21 22:39 | 30.20325 | -96.26335 | 8625 ft | 287 kts | 165° |
| 2026-04-21 22:39 | 30.18429 | -96.25596 | 8430 ft | 285 kts | 165° |
| 2026-04-21 22:40 | 30.16528 | -96.24856 | 8224 ft | 283 kts | 165° |
| 2026-04-21 22:40 | 30.14664 | -96.24130 | 8024 ft | 282 kts | 165° |
| 2026-04-21 22:40 | 30.12824 | -96.23415 | 7830 ft | 280 kts | 165° |
| 2026-04-21 22:40 | 30.10967 | -96.22692 | 7627 ft | 279 kts | 165° |
| 2026-04-21 22:41 | 30.09123 | -96.21975 | 7433 ft | 278 kts | 165° |
| 2026-04-21 22:41 | 30.07267 | -96.21254 | 7230 ft | 277 kts | 164° |
| 2026-04-21 22:41 | 30.05442 | -96.20545 | 7030 ft | 275 kts | 164° |
| 2026-04-21 22:41 | 30.03617 | -96.19836 | 6827 ft | 274 kts | 164° |
| 2026-04-21 22:42 | 30.01814 | -96.19136 | 6627 ft | 272 kts | 165° |
| 2026-04-21 22:42 | 30.00008 | -96.18436 | 6425 ft | 271 kts | 164° |
| 2026-04-21 22:42 | 29.98229 | -96.17745 | 6231 ft | 269 kts | 164° |
| 2026-04-21 22:42 | 29.96445 | -96.17053 | 6031 ft | 267 kts | 163° |
| 2026-04-21 22:43 | 29.94690 | -96.16373 | 5832 ft | 265 kts | 163° |
| 2026-04-21 22:43 | 29.92948 | -96.15690 | 5630 ft | 262 kts | 162° |
| 2026-04-21 22:43 | 29.91214 | -96.15000 | 5432 ft | 260 kts | 163° |
| 2026-04-21 22:43 | 29.89556 | -96.14340 | 5241 ft | 259 kts | 162° |
| 2026-04-21 22:44 | 29.87852 | -96.13662 | 5045 ft | 257 kts | 162° |
| 2026-04-21 22:44 | 29.86153 | -96.12989 | 4846 ft | 255 kts | 161° |
| 2026-04-21 22:44 | 29.84473 | -96.12321 | 4640 ft | 253 kts | 160° |
| 2026-04-21 22:44 | 29.82813 | -96.11665 | 4435 ft | 251 kts | 161° |
| 2026-04-21 22:45 | 29.81133 | -96.10998 | 4219 ft | 251 kts | 161° |
| 2026-04-21 22:45 | 29.79493 | -96.10348 | 4018 ft | 249 kts | 160° |
| 2026-04-21 22:45 | 29.77842 | -96.09694 | 3813 ft | 247 kts | 160° |
| 2026-04-21 22:45 | 29.76214 | -96.09049 | 3610 ft | 245 kts | 160° |
| 2026-04-21 22:46 | 29.74593 | -96.08408 | 3406 ft | 244 kts | 160° |
| 2026-04-21 22:46 | 29.73051 | -96.07660 | 3208 ft | 240 kts | 147° |
| 2026-04-21 22:46 | 29.71641 | -96.06590 | 3010 ft | 239 kts | 150° |
| 2026-04-21 22:46 | 29.70169 | -96.05710 | 2959 ft | 238 kts | 152° |
| 2026-04-21 22:47 | 29.68689 | -96.04865 | 2962 ft | 238 kts | 152° |
| 2026-04-21 22:47 | 29.67258 | -96.04050 | 2973 ft | 239 kts | 152° |
| 2026-04-21 22:47 | 29.65752 | -96.03194 | 2967 ft | 240 kts | 152° |
| 2026-04-21 22:47 | 29.64253 | -96.02341 | 2961 ft | 239 kts | 152° |
| 2026-04-21 22:48 | 29.62744 | -96.01479 | 2963 ft | 240 kts | 152° |
| 2026-04-21 22:48 | 29.61252 | -96.00622 | 2964 ft | 240 kts | 152° |
| 2026-04-21 22:48 | 29.59736 | -95.99756 | 2961 ft | 240 kts | 152° |
| 2026-04-21 22:48 | 29.58235 | -95.98902 | 2962 ft | 240 kts | 152° |
| 2026-04-21 22:49 | 29.56743 | -95.98048 | 2960 ft | 241 kts | 152° |
| 2026-04-21 22:49 | 29.55238 | -95.97192 | 2961 ft | 240 kts | 152° |
| 2026-04-21 22:49 | 29.53738 | -95.96341 | 2962 ft | 240 kts | 152° |
| 2026-04-21 22:49 | 29.52231 | -95.95489 | 2960 ft | 239 kts | 152° |
| 2026-04-21 22:50 | 29.50736 | -95.94641 | 2959 ft | 239 kts | 152° |
| 2026-04-21 22:50 | 29.49224 | -95.93790 | 2956 ft | 237 kts | 152° |
| 2026-04-21 22:50 | 29.47778 | -95.92981 | 2966 ft | 224 kts | 152° |
| 2026-04-21 22:50 | 29.46387 | -95.92192 | 2967 ft | 221 kts | 152° |
| 2026-04-21 22:51 | 29.45088 | -95.91464 | 2971 ft | 219 kts | 152° |
| 2026-04-21 22:51 | 29.43817 | -95.90598 | 2966 ft | 205 kts | 138° |
| 2026-04-21 22:51 | 29.42834 | -95.89452 | 2966 ft | 200 kts | 133° |
| 2026-04-21 22:51 | 29.41898 | -95.88261 | 2960 ft | 199 kts | 132° |
| 2026-04-21 22:52 | 29.40969 | -95.87073 | 2962 ft | 199 kts | 131° |
| 2026-04-21 22:52 | 29.40053 | -95.85901 | 2956 ft | 198 kts | 132° |
| 2026-04-21 22:52 | 29.39127 | -95.84730 | 2955 ft | 198 kts | 132° |
| 2026-04-21 22:52 | 29.38232 | -95.83601 | 2958 ft | 198 kts | 131° |
| 2026-04-21 22:53 | 29.37347 | -95.82484 | 2954 ft | 198 kts | 132° |
| 2026-04-21 22:53 | 29.36554 | -95.81473 | 2950 ft | 198 kts | 129° |
| 2026-04-21 22:53 | 29.35996 | -95.80113 | 2942 ft | 200 kts | 105° |
| 2026-04-21 22:53 | 29.35732 | -95.78453 | 2947 ft | 201 kts | 102° |
| 2026-04-21 22:54 | 29.35511 | -95.76848 | 2945 ft | 202 kts | 102° |
| 2026-04-21 22:54 | 29.35296 | -95.75278 | 2944 ft | 202 kts | 102° |
| 2026-04-21 22:54 | 29.35078 | -95.73679 | 2948 ft | 203 kts | 102° |
| 2026-04-21 22:54 | 29.34862 | -95.72091 | 2947 ft | 203 kts | 102° |
| 2026-04-21 22:55 | 29.34642 | -95.70491 | 2950 ft | 203 kts | 101° |
| 2026-04-21 22:55 | 29.34716 | -95.68932 | 2946 ft | 209 kts | 73° |
| 2026-04-21 22:55 | 29.35563 | -95.67536 | 2951 ft | 216 kts | 53° |
| 2026-04-21 22:55 | 29.36697 | -95.66379 | 2956 ft | 220 kts | 43° |
| 2026-04-21 22:56 | 29.37925 | -95.65334 | 2967 ft | 215 kts | 41° |
| 2026-04-21 22:56 | 29.39096 | -95.64367 | 2980 ft | 196 kts | 39° |
| 2026-04-21 22:56 | 29.40355 | -95.63783 | 2968 ft | 201 kts | 15° |
| 2026-04-21 22:56 | 29.41780 | -95.63744 | 2968 ft | 203 kts | 1° |
| 2026-04-21 22:57 | 29.43191 | -95.63867 | 2965 ft | 203 kts | 359° |
| 2026-04-21 22:57 | 29.44602 | -95.63997 | 2961 ft | 203 kts | 359° |
| 2026-04-21 22:57 | 29.46007 | -95.64127 | 2961 ft | 195 kts | 359° |
| 2026-04-21 22:57 | 29.47289 | -95.64253 | 2870 ft | 177 kts | 0° |
| 2026-04-21 22:58 | 29.48502 | -95.64368 | 2622 ft | 169 kts | 1° |
| 2026-04-21 22:58 | 29.49653 | -95.64476 | 2423 ft | 160 kts | 2° |
| 2026-04-21 22:58 | 29.50733 | -95.64575 | 2210 ft | 158 kts | 2° |
| 2026-04-21 22:58 | 29.51817 | -95.64675 | 2005 ft | 155 kts | 2° |
| 2026-04-21 22:59 | 29.52905 | -95.64777 | 1805 ft | 156 kts | 3° |
| 2026-04-21 22:59 | 29.53971 | -95.64876 | 1586 ft | 153 kts | 3° |
| 2026-04-21 22:59 | 29.55023 | -95.64978 | 1381 ft | 149 kts | 2° |
| 2026-04-21 22:59 | 29.56042 | -95.65075 | 1203 ft | 139 kts | 2° |
| 2026-04-21 23:00 | 29.56986 | -95.65167 | 1058 ft | 135 kts | 1° |
| 2026-04-21 23:00 | 29.57916 | -95.65252 | 839 ft | 132 kts | 2° |
| 2026-04-21 23:00 | 29.58827 | -95.65335 | 695 ft | 130 kts | 1° |
| 2026-04-21 23:00 | 29.59734 | -95.65421 | 516 ft | 129 kts | 360° |
| 2026-04-21 23:01 | 29.60615 | -95.65503 | 348 ft | 128 kts | 0° |
| 2026-04-21 23:01 | 29.61504 | -95.65585 | 128 ft | 125 kts | 359° |
| 2026-04-21 23:01 | 29.62291 | -95.65659 | 84 ft | 99 kts | 357° |
| 2026-04-21 23:01 | 29.62795 | -95.65706 | 85 ft | 43 kts | 355° |
| 2026-04-21 23:02 | 29.63013 | -95.65726 | 85 ft | 30 kts | 353° |
| 2026-04-21 23:02 | 29.63193 | -95.65745 | 85 ft | 21 kts | 355° |
| 2026-04-21 23:02 | 29.63295 | -95.65744 | 85 ft | 11 kts | 45° |
| 2026-04-21 23:02 | 29.63261 | -95.65690 | 85 ft | 12 kts | 174° |
| 2026-04-21 23:03 | 29.63160 | -95.65680 | 85 ft | 16 kts | 174° |
| 2026-04-21 23:03 | 29.63030 | -95.65666 | 85 ft | 20 kts | 174° |
| 2026-04-21 23:03 | 29.62918 | -95.65659 | 85 ft | 8 kts | 174° |
| 2026-04-21 23:03 | 29.62885 | -95.65598 | 85 ft | 12 kts | 86° |
| 2026-04-21 23:04 | 29.62890 | -95.65544 | 85 ft | 0 kts | 84° |